Time;durP1;ratioP1;P1;durP2;ratioP2;P2;SDS_P1;SDS_P2;PMS_P1;PMS_P2;Temp;Humidity;BMP_temperature;BMP_pressure;BME280_temperature;BME280_humidity;BME280_pressure;Samples;Min_cycle;Max_cycle;Signal;HPM_P1;HPM_P2
2024/01/30 00:00:42;;;;;;;301.70;191.90;;;;;;;-3.69;100.00;100814.75;109484;1252;65611;-75
2024/01/30 00:03:29;;;;;;;305.70;191.50;;;;;;;-3.68;100.00;100814.09;109514;1251;62437;-77
2024/01/30 00:05:56;;;;;;;302.60;194.20;;;;;;;-3.67;100.00;100815.31;109250;1251;64123;-77
2024/01/30 00:08:23;;;;;;;284.90;183.20;;;;;;;-3.66;100.00;100820.73;109459;1251;59818;-77
2024/01/30 00:10:49;;;;;;;294.40;187.10;;;;;;;-3.66;100.00;100821.41;109484;1251;60674;-76
2024/01/30 00:13:18;;;;;;;270.60;171.00;;;;;;;-3.69;100.00;100823.61;109468;1251;67804;-76
2024/01/30 00:15:45;;;;;;;265.60;166.90;;;;;;;-3.75;100.00;100820.55;109484;1251;61095;-79
2024/01/30 00:18:11;;;;;;;268.60;168.90;;;;;;;-3.81;100.00;100819.21;109481;1251;64150;-77
2024/01/30 00:20:38;;;;;;;278.30;172.50;;;;;;;-3.86;100.00;100815.11;108694;1251;1002452;-78
2024/01/30 00:23:04;;;;;;;284.90;178.70;;;;;;;-3.88;100.00;100815.40;109490;1251;59837;-77
2024/01/30 00:25:33;;;;;;;286.60;177.70;;;;;;;-3.90;100.00;100811.54;109470;1251;68028;-77
2024/01/30 00:27:59;;;;;;;285.10;176.80;;;;;;;-3.91;100.00;100814.98;109469;1251;60061;-77
2024/01/30 00:30:26;;;;;;;275.70;179.60;;;;;;;-3.93;100.00;100815.13;109482;1251;63935;-77
2024/01/30 00:32:53;;;;;;;281.90;175.10;;;;;;;-3.96;100.00;100816.64;109433;1251;60076;-77
2024/01/30 00:35:21;;;;;;;280.70;169.90;;;;;;;-3.99;100.00;100813.10;109369;1251;59844;-76
2024/01/30 00:37:48;;;;;;;290.60;177.20;;;;;;;-4.01;100.00;100809.41;108731;1251;1002508;-76
2024/01/30 00:40:15;;;;;;;281.80;177.40;;;;;;;-4.03;100.00;100808.50;108679;1251;1002182;-77
2024/01/30 00:42:42;;;;;;;276.00;168.30;;;;;;;-4.05;100.00;100806.88;109365;1251;63719;-76
2024/01/30 00:45:14;;;;;;;278.30;177.00;;;;;;;-4.09;100.00;100812.70;108709;1251;1003063;-76
2024/01/30 00:47:41;;;;;;;266.40;170.20;;;;;;;-4.11;100.00;100813.01;109482;1251;59846;-76
2024/01/30 00:50:08;;;;;;;272.60;175.00;;;;;;;-4.12;100.00;100812.11;109511;1251;68047;-77
2024/01/30 00:52:35;;;;;;;269.50;168.40;;;;;;;-4.14;100.00;100814.15;109507;1251;61216;-77
2024/01/30 00:55:02;;;;;;;275.90;174.80;;;;;;;-4.17;100.00;100816.02;109461;1251;64105;-76
2024/01/30 00:57:29;;;;;;;285.90;180.30;;;;;;;-4.19;100.00;100810.59;109175;1251;59843;-75
2024/01/30 00:59:55;;;;;;;259.60;166.50;;;;;;;-4.21;100.00;100809.86;109494;1251;60798;-76
2024/01/30 01:02:22;;;;;;;270.80;175.00;;;;;;;-4.22;100.00;100807.90;109441;1252;66758;-76
2024/01/30 01:04:48;;;;;;;263.00;170.00;;;;;;;-4.23;100.00;100801.99;109480;1251;60049;-75
2024/01/30 01:07:15;;;;;;;269.30;169.40;;;;;;;-4.22;100.00;100802.02;109478;1251;65406;-77
2024/01/30 01:09:41;;;;;;;271.10;165.80;;;;;;;-4.23;100.00;100801.48;109443;1251;59820;-75
2024/01/30 01:12:08;;;;;;;286.10;177.20;;;;;;;-4.28;100.00;100801.36;109452;1252;59774;-76
2024/01/30 01:14:36;;;;;;;278.30;168.20;;;;;;;-4.29;100.00;100802.02;109317;1251;67759;-76
2024/01/30 01:17:02;;;;;;;256.30;159.50;;;;;;;-4.31;100.00;100805.10;109440;1251;61154;-76
2024/01/30 01:19:29;;;;;;;247.20;154.80;;;;;;;-4.35;100.00;100800.69;109473;1251;62734;-77
2024/01/30 01:21:56;;;;;;;255.30;161.50;;;;;;;-4.38;100.00;100798.02;109514;1251;60031;-79
2024/01/30 01:24:22;;;;;;;263.50;161.90;;;;;;;-4.38;100.00;100796.45;109506;1251;59853;-76
2024/01/30 01:26:49;;;;;;;264.90;165.30;;;;;;;-4.39;100.00;100792.45;109520;1251;66966;-76
2024/01/30 01:29:16;;;;;;;261.90;158.30;;;;;;;-4.40;100.00;100791.72;109483;1251;59886;-75
2024/01/30 01:31:46;;;;;;;269.60;161.60;;;;;;;-4.42;100.00;100794.45;109488;1251;65126;-75
2024/01/30 01:34:12;;;;;;;;;;;;;;;-4.45;100.00;100788.33;109488;1251;59773;-76
2024/01/30 01:36:39;;;;;;;263.80;162.00;;;;;;;-4.47;100.00;100786.55;109419;1251;60013;-76
2024/01/30 01:39:06;;;;;;;270.10;166.20;;;;;;;-4.48;100.00;100787.38;109487;1251;67804;-76
2024/01/30 01:41:33;;;;;;;276.30;167.80;;;;;;;-4.51;100.00;100778.80;109513;1251;60158;-77
2024/01/30 01:44:00;;;;;;;311.50;193.60;;;;;;;-4.51;100.00;100781.93;108665;1251;1003378;-79
2024/01/30 01:46:29;;;;;;;279.40;173.30;;;;;;;-4.50;100.00;100785.44;109467;1251;59819;-76
2024/01/30 01:48:56;;;;;;;289.00;177.20;;;;;;;-4.50;100.00;100781.96;109464;1251;60130;-76
2024/01/30 01:51:27;;;;;;;282.50;177.60;;;;;;;-4.52;100.00;100777.39;109466;1251;68065;-76
2024/01/30 01:53:55;;;;;;;279.20;172.40;;;;;;;-4.55;100.00;100779.94;109404;1251;60237;-78
2024/01/30 01:56:23;;;;;;;314.20;196.90;;;;;;;-4.57;100.00;100773.82;109468;1251;64193;-76
2024/01/30 01:58:52;;;;;;;302.40;182.60;;;;;;;-4.59;100.00;100771.34;109403;1251;60080;-77
2024/01/30 02:01:19;;;;;;;309.50;189.40;;;;;;;-4.61;100.00;100771.48;109415;1251;59841;-77
2024/01/30 02:03:47;;;;;;;304.30;190.30;;;;;;;-4.61;100.00;100770.59;109532;1251;66790;-77
2024/01/30 02:06:14;;;;;;;296.30;184.00;;;;;;;-4.63;100.00;100767.97;109517;1251;61316;-75
2024/01/30 02:08:41;;;;;;;291.10;179.40;;;;;;;-4.65;100.00;100764.62;109490;1251;65112;-78
2024/01/30 02:11:09;;;;;;;268.60;173.30;;;;;;;-4.66;100.00;100763.04;109155;1251;59797;-77
2024/01/30 02:13:36;;;;;;;277.60;175.10;;;;;;;-4.66;100.00;100761.30;109390;1251;59745;-77
2024/01/30 02:16:03;;;;;;;276.10;174.80;;;;;;;-4.69;100.00;100762.64;109434;1250;68025;-76
2024/01/30 02:18:30;;;;;;;272.00;166.80;;;;;;;-4.72;100.00;100765.48;107648;1253;1003285;-77
2024/01/30 02:21:01;;;;;;;270.10;166.00;;;;;;;-4.77;100.00;100764.36;108692;1251;1002338;-76
2024/01/30 02:23:28;;;;;;;262.70;169.80;;;;;;;-4.80;100.00;100758.20;109482;1251;59845;-76
2024/01/30 02:25:54;;;;;;;272.10;169.60;;;;;;;-4.81;100.00;100758.17;109491;1251;59882;-75
2024/01/30 02:28:21;;;;;;;254.80;153.70;;;;;;;-4.82;100.00;100760.22;109485;1251;67823;-77
2024/01/30 02:30:48;;;;;;;254.30;162.00;;;;;;;-4.83;100.00;100762.63;109469;1251;68496;-77
2024/01/30 02:33:14;;;;;;;260.60;165.30;;;;;;;-4.85;100.00;100761.73;109499;1251;65022;-77
2024/01/30 02:35:41;;;;;;;262.90;161.00;;;;;;;-4.85;100.00;100765.71;109439;1251;59743;-76
2024/01/30 02:38:08;;;;;;;262.60;160.10;;;;;;;-4.86;100.00;100765.00;109500;1251;59793;-76
2024/01/30 02:40:34;;;;;;;262.10;160.50;;;;;;;-4.87;100.00;100762.73;109463;1250;67869;-77
2024/01/30 02:43:02;;;;;;;274.40;168.60;;;;;;;-4.87;100.00;100761.84;109475;1251;61188;-76
2024/01/30 02:45:29;;;;;;;267.50;167.70;;;;;;;-4.87;100.00;100769.81;109301;1251;64935;-76
2024/01/30 02:47:55;;;;;;;260.40;164.60;;;;;;;-4.86;100.00;100772.10;109449;1251;59839;-78
2024/01/30 02:50:22;;;;;;;265.80;163.70;;;;;;;-4.87;100.00;100769.14;109505;1251;60140;-78
2024/01/30 02:52:49;;;;;;;266.70;162.60;;;;;;;-4.88;100.00;100769.79;109485;1251;67801;-78
2024/01/30 02:55:17;;;;;;;256.10;162.60;;;;;;;-4.89;100.00;100764.06;109518;1251;61182;-76
2024/01/30 02:57:44;;;;;;;260.10;160.90;;;;;;;-4.89;100.00;100766.31;109456;1251;65043;-77
2024/01/30 03:00:48;;;;;;;259.40;163.10;;;;;;;-4.88;100.00;100763.56;109165;1251;59919;-76
2024/01/30 03:03:14;;;;;;;258.70;157.60;;;;;;;-4.90;100.00;100763.17;109501;1251;59712;-76
2024/01/30 03:05:42;;;;;;;247.70;151.20;;;;;;;-4.92;100.00;100758.27;109483;1251;67123;-77
2024/01/30 03:08:08;;;;;;;250.00;154.30;;;;;;;-4.94;100.00;100754.05;109489;1251;60257;-76
2024/01/30 03:10:35;;;;;;;243.90;148.80;;;;;;;-4.96;100.00;100758.16;109444;1251;65050;-77
2024/01/30 03:13:02;;;;;;;246.50;153.50;;;;;;;-4.98;100.00;100757.60;109516;1251;59806;-75
2024/01/30 03:15:28;;;;;;;241.50;148.20;;;;;;;-5.00;100.00;100756.69;109452;1251;60502;-73
2024/01/30 03:17:55;;;;;;;234.70;148.70;;;;;;;-5.00;100.00;100754.77;108733;1251;1002484;-76
2024/01/30 03:20:21;;;;;;;250.80;150.10;;;;;;;-5.02;100.00;100750.21;108731;1251;1002962;-76
2024/01/30 03:22:48;;;;;;;237.50;146.70;;;;;;;-5.05;100.00;100747.89;108702;1251;1002815;-77
2024/01/30 03:25:15;;;;;;;249.20;150.90;;;;;;;-5.08;100.00;100743.69;108713;1251;1003002;-75
2024/01/30 03:27:41;;;;;;;232.20;144.70;;;;;;;-5.08;100.00;100746.80;108763;1251;1002649;-78
2024/01/30 03:30:08;;;;;;;241.20;148.70;;;;;;;-5.09;100.00;100749.72;108658;1251;1003080;-78
2024/01/30 03:32:35;;;;;;;231.50;145.40;;;;;;;-5.09;100.00;100750.59;109498;1251;60031;-76
2024/01/30 03:35:01;;;;;;;228.50;142.00;;;;;;;-5.08;100.00;100751.99;109459;1251;64019;-76
2024/01/30 03:37:28;;;;;;;234.70;143.20;;;;;;;-5.08;100.00;100752.15;109409;1251;60147;-76
2024/01/30 03:39:55;;;;;;;234.40;139.00;;;;;;;-5.08;100.00;100751.98;109459;1251;59736;-75
2024/01/30 03:42:22;;;;;;;222.80;140.00;;;;;;;-5.09;100.00;100751.10;109497;1251;67944;-76
2024/01/30 03:44:51;;;;;;;238.80;146.40;;;;;;;-5.08;100.00;100751.13;109479;1251;60897;-77
2024/01/30 03:47:19;;;;;;;237.00;147.20;;;;;;;-5.08;100.00;100754.77;109388;1251;65308;-76
2024/01/30 03:49:46;;;;;;;232.30;145.90;;;;;;;-5.06;100.00;100754.45;109460;1251;59842;-77
2024/01/30 03:52:12;;;;;;;234.00;144.20;;;;;;;-5.03;100.00;100756.27;108711;1251;1002989;-76
2024/01/30 03:54:39;;;;;;;227.10;143.50;;;;;;;-5.03;100.00;100755.73;109449;1251;59955;-76
2024/01/30 03:57:05;;;;;;;232.50;151.20;;;;;;;-5.03;100.00;100754.67;107940;1251;1002721;-77
2024/01/30 03:59:32;;;;;;;231.00;144.40;;;;;;;-5.01;100.00;100752.66;109484;1251;59879;-77
2024/01/30 04:01:59;;;;;;;243.50;150.70;;;;;;;-5.01;100.00;100754.40;109272;1251;59806;-77
2024/01/30 04:04:26;;;;;;;233.00;144.90;;;;;;;-5.02;100.00;100753.33;109422;1251;59694;-77
2024/01/30 04:06:53;;;;;;;234.10;148.10;;;;;;;-5.04;100.00;100754.33;109491;1251;66893;-76
2024/01/30 04:09:19;;;;;;;243.50;149.60;;;;;;;-5.05;100.00;100750.13;109466;1251;60021;-77
2024/01/30 04:11:46;;;;;;;236.30;144.70;;;;;;;-5.05;100.00;100752.04;109456;1251;65196;-76
2024/01/30 04:14:12;;;;;;;235.20;145.70;;;;;;;-5.05;100.00;100754.29;109459;1251;60014;-75
2024/01/30 04:16:39;;;;;;;248.20;152.40;;;;;;;-5.06;100.00;100756.53;109519;1251;59807;-76
2024/01/30 04:19:05;;;;;;;243.10;148.00;;;;;;;-5.07;100.00;100751.67;109521;1251;67982;-75
2024/01/30 04:21:32;;;;;;;236.10;146.20;;;;;;;-5.07;100.00;100751.33;109435;1255;59925;-76
2024/01/30 04:23:59;;;;;;;235.60;148.70;;;;;;;-5.08;100.00;100754.25;109291;1251;64058;-77
2024/01/30 04:26:25;;;;;;;241.00;144.80;;;;;;;-5.10;100.00;100755.25;109466;1251;59838;-75
2024/01/30 04:28:52;;;;;;;230.00;144.80;;;;;;;-5.10;100.00;100754.17;109474;1251;59753;-75
2024/01/30 04:31:18;;;;;;;228.60;145.30;;;;;;;-5.11;100.00;100751.38;109452;1251;66706;-75
2024/01/30 04:33:45;;;;;;;236.90;145.30;;;;;;;-5.11;100.00;100749.83;109510;1253;60029;-77
2024/01/30 04:36:12;;;;;;;229.60;144.60;;;;;;;-5.13;100.00;100748.39;109420;1251;63977;-77
2024/01/30 04:38:39;;;;;;;224.40;142.40;;;;;;;-5.15;100.00;100749.90;109484;1253;60067;-76
2024/01/30 04:41:05;;;;;;;224.90;137.70;;;;;;;-5.19;100.00;100751.19;109169;1251;59923;-77
2024/01/30 04:43:32;;;;;;;218.80;135.10;;;;;;;-5.23;100.00;100750.05;109525;1251;66650;-77
2024/01/30 04:45:59;;;;;;;217.90;134.80;;;;;;;-5.28;100.00;100747.49;109470;1251;61160;-76
2024/01/30 04:48:25;;;;;;;226.20;139.60;;;;;;;-5.31;100.00;100747.08;109425;1252;64715;-76
2024/01/30 04:50:52;;;;;;;219.60;132.80;;;;;;;-5.34;100.00;100748.58;109480;1251;59820;-76
2024/01/30 04:53:19;;;;;;;219.80;136.80;;;;;;;-5.36;100.00;100749.19;109498;1251;60576;-75
2024/01/30 04:55:45;;;;;;;204.40;133.20;;;;;;;-5.39;100.00;100752.95;109474;1255;66991;-77
2024/01/30 04:58:12;;;;;;;219.70;131.70;;;;;;;-5.41;100.00;100750.29;109198;1251;60269;-78
2024/01/30 05:00:38;;;;;;;217.60;136.50;;;;;;;-5.43;100.00;100754.05;109345;1251;64102;-77
2024/01/30 05:03:05;;;;;;;211.20;134.30;;;;;;;-5.43;100.00;100756.30;109477;1252;59779;-76
2024/01/30 05:05:32;;;;;;;219.60;139.40;;;;;;;-5.43;100.00;100754.73;109249;1251;59829;-76
2024/01/30 05:07:58;;;;;;;229.30;143.70;;;;;;;-5.43;100.00;100752.84;109322;1251;67480;-78
2024/01/30 05:10:25;;;;;;;234.40;146.80;;;;;;;-5.42;100.00;100750.61;109514;1251;60034;-75
2024/01/30 05:12:51;;;;;;;227.50;141.90;;;;;;;-5.40;100.00;100750.83;109463;1251;64184;-77
2024/01/30 05:15:19;;;;;;;229.10;143.10;;;;;;;-5.38;100.00;100754.69;109542;1251;60035;-77
2024/01/30 05:17:45;;;;;;;235.30;149.70;;;;;;;-5.39;100.00;100746.20;109605;1251;59827;-75
2024/01/30 05:20:12;;;;;;;222.60;143.70;;;;;;;-5.39;100.00;100754.48;109568;1251;67791;-76
2024/01/30 05:22:44;;;;;;;223.00;138.30;;;;;;;-5.39;100.00;100757.78;109497;1251;59797;-75
2024/01/30 05:25:13;;;;;;;219.70;138.60;;;;;;;-5.40;100.00;100754.30;108790;1251;1002512;-76
2024/01/30 05:27:39;;;;;;;226.60;135.90;;;;;;;-5.42;100.00;100753.56;109484;1252;59804;-77
2024/01/30 05:30:07;;;;;;;225.40;139.20;;;;;;;-5.43;100.00;100747.98;109513;1251;59967;-76
2024/01/30 05:32:33;;;;;;;216.50;136.00;;;;;;;-5.46;100.00;100748.08;109522;1251;68044;-75
2024/01/30 05:35:00;;;;;;;211.20;134.60;;;;;;;-5.48;100.00;100745.95;109526;1251;61024;-78
2024/01/30 05:37:27;;;;;;;222.80;136.60;;;;;;;-5.51;100.00;100745.35;109504;1251;65132;-76
2024/01/30 05:39:53;;;;;;;222.80;138.00;;;;;;;-5.54;100.00;100749.27;109487;1251;60009;-78
2024/01/30 05:42:20;;;;;;;221.20;136.70;;;;;;;-5.56;100.00;100749.04;109527;1251;59784;-75
2024/01/30 05:44:46;;;;;;;236.20;143.60;;;;;;;-5.57;100.00;100743.46;109517;1251;67898;-78
2024/01/30 05:47:13;;;;;;;222.80;140.20;;;;;;;-5.57;100.00;100741.21;109512;1253;60375;-76
2024/01/30 05:49:40;;;;;;;221.70;135.90;;;;;;;-5.58;100.00;100743.64;109160;1252;64047;-76
2024/01/30 05:52:07;;;;;;;240.70;148.70;;;;;;;-5.57;100.00;100743.45;109468;1251;59793;-76
2024/01/30 05:54:33;;;;;;;238.30;151.60;;;;;;;-5.57;100.00;100745.19;109512;1251;60067;-76
2024/01/30 05:57:00;;;;;;;236.80;146.90;;;;;;;-5.58;100.00;100745.70;109469;1251;66920;-77
2024/01/30 05:59:27;;;;;;;228.80;145.50;;;;;;;-5.58;100.00;100746.04;108740;1251;1003372;-77
2024/01/30 06:01:53;;;;;;;232.90;148.70;;;;;;;-5.59;100.00;100742.71;109484;1251;64105;-76
2024/01/30 06:04:20;;;;;;;229.40;145.50;;;;;;;-5.60;100.00;100740.45;109527;1251;60084;-77
2024/01/30 06:06:46;;;;;;;224.60;143.30;;;;;;;-5.61;100.00;100743.71;109487;1251;59850;-75
2024/01/30 06:09:14;;;;;;;229.70;142.50;;;;;;;-5.61;100.00;100743.20;109454;1252;68035;-75
2024/01/30 06:11:40;;;;;;;218.70;142.60;;;;;;;-5.60;100.00;100743.56;109480;1253;61065;-77
2024/01/30 06:14:07;;;;;;;243.70;148.50;;;;;;;-5.61;100.00;100747.01;109213;1251;64262;-77
2024/01/30 06:16:33;;;;;;;229.70;145.30;;;;;;;-5.61;100.00;100752.89;109427;1251;59815;-77
2024/01/30 06:19:00;;;;;;;239.10;150.50;;;;;;;-5.60;100.00;100753.96;109464;1251;59822;-77
2024/01/30 06:21:27;;;;;;;226.90;144.70;;;;;;;-5.59;100.00;100757.77;109499;1251;68122;-75
2024/01/30 06:23:53;;;;;;;239.60;147.40;;;;;;;-5.59;100.00;100757.09;109478;1253;61205;-77
2024/01/30 06:26:20;;;;;;;225.60;145.80;;;;;;;-5.58;100.00;100763.17;109462;1252;65055;-76
2024/01/30 06:28:46;;;;;;;239.50;153.20;;;;;;;-5.57;100.00;100766.48;109454;1251;59960;-77
2024/01/30 06:31:13;;;;;;;240.10;149.60;;;;;;;-5.55;100.00;100761.53;108708;1251;1003049;-77
2024/01/30 06:33:42;;;;;;;229.30;148.50;;;;;;;-5.52;100.00;100765.23;108709;1251;1002899;-79
2024/01/30 06:36:08;;;;;;;240.60;149.40;;;;;;;-5.49;100.00;100764.98;109495;1253;60935;-74
2024/01/30 06:38:35;;;;;;;234.70;147.20;;;;;;;-5.47;100.00;100765.56;109426;1251;64181;-75
2024/01/30 06:41:02;;;;;;;237.70;148.10;;;;;;;-5.45;100.00;100765.96;109473;1251;59722;-74
2024/01/30 06:43:28;;;;;;;236.80;151.60;;;;;;;-5.40;100.00;100763.14;109472;1251;59787;-76
2024/01/30 06:45:55;;;;;;;237.30;149.20;;;;;;;-5.35;100.00;100756.52;109182;1251;65690;-77
2024/01/30 06:48:21;;;;;;;229.90;150.50;;;;;;;-5.30;100.00;100758.89;108604;1257;1002964;-76
2024/01/30 06:50:49;;;;;;;238.90;151.60;;;;;;;-5.26;100.00;100762.09;108718;1251;1002414;-76
2024/01/30 06:53:15;;;;;;;227.50;145.50;;;;;;;-5.21;100.00;100761.70;109280;1253;59755;-76
2024/01/30 06:55:42;;;;;;;243.60;153.40;;;;;;;-5.16;100.00;100761.99;109504;1251;59830;-78
2024/01/30 06:58:09;;;;;;;234.40;152.40;;;;;;;-5.12;100.00;100762.29;109486;1251;68043;-76
2024/01/30 07:00:36;;;;;;;244.60;153.50;;;;;;;-5.07;100.00;100761.20;109487;1251;61097;-76
2024/01/30 07:03:03;;;;;;;252.70;158.90;;;;;;;-5.01;100.00;100757.70;109495;1251;65274;-76
2024/01/30 07:05:29;;;;;;;252.70;160.10;;;;;;;-4.95;100.00;100760.44;109450;1251;59857;-77
2024/01/30 07:07:56;;;;;;;243.40;156.70;;;;;;;-4.89;100.00;100761.27;109509;1251;59789;-75
2024/01/30 07:10:22;;;;;;;240.90;156.00;;;;;;;-4.84;100.00;100758.63;109478;1251;67567;-76
2024/01/30 07:12:49;;;;;;;247.60;158.70;;;;;;;-4.79;100.00;100756.83;109455;1251;60649;-73
2024/01/30 07:15:19;;;;;;;254.60;162.40;;;;;;;-4.74;100.00;100756.27;109253;1251;63957;-76
2024/01/30 07:17:46;;;;;;;274.90;175.50;;;;;;;-4.66;100.00;100763.90;108672;1251;1002792;-75
2024/01/30 07:20:13;;;;;;;277.10;175.80;;;;;;;-4.56;100.00;100763.26;109528;1251;59997;-76
2024/01/30 07:22:40;;;;;;;274.40;174.70;;;;;;;-4.45;100.00;100768.36;109470;1251;67910;-77
2024/01/30 07:25:07;;;;;;;262.30;169.60;;;;;;;-4.36;100.00;100767.35;109452;1251;61023;-76
2024/01/30 07:27:33;;;;;;;276.80;178.80;;;;;;;-4.27;100.00;100765.64;109457;1251;64834;-76
2024/01/30 07:30:00;;;;;;;283.80;187.10;;;;;;;-4.18;100.00;100761.16;109441;1251;59802;-75
2024/01/30 07:32:26;;;;;;;287.40;193.40;;;;;;;-4.08;100.00;100759.10;109471;1253;60141;-76
2024/01/30 07:34:53;;;;;;;296.90;193.00;;;;;;;-3.96;100.00;100754.31;109486;1253;67787;-76
2024/01/30 07:37:19;;;;;;;286.10;187.10;;;;;;;-3.85;100.00;100756.09;109493;1251;60424;-74
2024/01/30 07:39:47;;;;;;;304.90;202.70;;;;;;;-3.77;100.00;100751.22;108696;1251;1002570;-76
2024/01/30 07:42:13;;;;;;;268.20;179.30;;;;;;;-3.68;100.00;100751.73;109148;1253;59803;-76
2024/01/30 07:44:40;;;;;;;289.90;184.30;;;;;;;-3.59;100.00;100747.73;109438;1251;59936;-78
2024/01/30 07:47:07;;;;;;;257.70;175.40;;;;;;;-3.48;100.00;100746.20;109457;1255;66903;-76
2024/01/30 07:49:34;;;;;;;270.90;176.20;;;;;;;-3.38;100.00;100743.76;109493;1252;61255;-76
2024/01/30 07:52:01;;;;;;;260.30;172.80;;;;;;;-3.28;100.00;100740.98;108672;1251;1002873;-75
2024/01/30 07:54:33;;;;;;;268.10;175.50;;;;;;;-3.17;100.00;100741.35;109457;1251;59761;-77
2024/01/30 07:57:01;;;;;;;267.10;174.70;;;;;;;-3.05;100.00;100741.88;109494;1252;61841;-76
2024/01/30 07:59:27;;;;;;;247.10;173.20;;;;;;;-2.96;100.00;100742.91;109450;1251;67007;-76
2024/01/30 08:01:54;;;;;;;258.00;178.00;;;;;;;-2.85;100.00;100740.30;109419;1253;60145;-76
2024/01/30 08:04:21;;;;;;;244.20;171.40;;;;;;;-2.74;100.00;100739.59;109480;1251;64993;-77
2024/01/30 08:06:47;;;;;;;279.40;195.70;;;;;;;-2.63;100.00;100741.15;109528;1253;59765;-75
2024/01/30 08:09:14;;;;;;;247.40;173.40;;;;;;;-2.52;100.00;100744.09;109450;1251;60095;-76
2024/01/30 08:11:41;;;;;;;263.50;179.00;;;;;;;-2.39;100.00;100741.83;109454;1251;66961;-76
2024/01/30 08:14:07;;;;;;;246.30;166.50;;;;;;;-2.26;100.00;100740.96;109496;1255;59958;-75
2024/01/30 08:16:34;;;;;;;250.20;169.40;;;;;;;-2.15;100.00;100742.84;109480;1251;65280;-76
2024/01/30 08:19:01;;;;;;;241.70;169.00;;;;;;;-2.03;100.00;100744.73;109460;1251;60039;-75
2024/01/30 08:21:27;;;;;;;229.30;160.30;;;;;;;-1.90;100.00;100750.11;109321;1251;60764;-76
2024/01/30 08:23:54;;;;;;;225.60;163.60;;;;;;;-1.78;100.00;100747.64;109447;1253;67833;-74
2024/01/30 08:26:21;;;;;;;228.50;156.00;;;;;;;-1.64;100.00;100745.89;109463;1253;60050;-75
2024/01/30 08:28:47;;;;;;;211.20;150.40;;;;;;;-1.50;100.00;100740.80;109498;1252;64027;-77
2024/01/30 08:31:14;;;;;;;193.30;135.90;;;;;;;-1.37;100.00;100740.59;109490;1251;59757;-76
2024/01/30 08:33:40;;;;;;;182.60;128.90;;;;;;;-1.23;100.00;100739.14;109220;1251;59818;-76
2024/01/30 08:36:07;;;;;;;184.40;128.80;;;;;;;-1.11;100.00;100738.38;109490;1251;67891;-75
2024/01/30 08:38:33;;;;;;;177.00;127.60;;;;;;;-1.01;100.00;100743.52;109477;1251;61315;-76
2024/01/30 08:41:00;;;;;;;170.50;127.90;;;;;;;-0.90;100.00;100745.88;109438;1251;65084;-75
2024/01/30 08:43:27;;;;;;;160.40;122.60;;;;;;;-0.77;100.00;100743.19;109474;1253;59896;-75
2024/01/30 08:45:53;;;;;;;153.10;117.00;;;;;;;-0.64;100.00;100745.19;109471;1252;59827;-77
2024/01/30 08:48:21;;;;;;;146.50;110.90;;;;;;;-0.52;100.00;100748.77;109482;1251;67520;-76
2024/01/30 08:50:47;;;;;;;100.40;76.90;;;;;;;-0.39;100.00;100747.61;109517;1255;61044;-77
2024/01/30 08:53:14;;;;;;;112.00;77.60;;;;;;;-0.30;100.00;100746.79;109459;1251;65056;-76
2024/01/30 08:55:41;;;;;;;105.30;73.40;;;;;;;-0.21;100.00;100747.72;109437;1251;59761;-74
2024/01/30 08:58:07;;;;;;;106.10;75.20;;;;;;;-0.12;100.00;100748.98;109482;1251;59833;-76
2024/01/30 09:00:34;;;;;;;96.80;69.30;;;;;;;-0.02;100.00;100749.39;109544;1251;66738;-75
2024/01/30 09:03:01;;;;;;;83.20;58.90;;;;;;;0.08;100.00;100749.24;109473;1251;60336;-75
2024/01/30 09:05:28;;;;;;;79.50;58.30;;;;;;;0.18;100.00;100745.44;109488;1254;65067;-76
2024/01/30 09:07:54;;;;;;;83.30;56.40;;;;;;;0.28;100.00;100748.43;109460;1251;59756;-75
2024/01/30 09:10:21;;;;;;;70.10;51.20;;;;;;;0.37;100.00;100743.57;109415;1251;60174;-76
2024/01/30 09:12:49;;;;;;;70.10;49.50;;;;;;;0.47;100.00;100743.42;109474;1251;66753;-76
2024/01/30 09:15:15;;;;;;;69.80;50.60;;;;;;;0.55;100.00;100740.46;109456;1251;60913;-76
2024/01/30 09:17:42;;;;;;;69.80;48.90;;;;;;;0.63;100.00;100741.17;109472;1251;64117;-75
2024/01/30 09:20:09;;;;;;;69.50;52.00;;;;;;;0.70;100.00;100740.66;109423;1251;59740;-75
2024/01/30 09:22:35;;;;;;;70.40;52.20;;;;;;;0.79;100.00;100741.20;109478;1253;59775;-75
2024/01/30 09:25:02;;;;;;;69.60;54.60;;;;;;;0.88;100.00;100740.86;109459;1251;67826;-76
2024/01/30 09:27:29;;;;;;;73.30;54.60;;;;;;;0.96;100.00;100734.91;109267;1260;60059;-75
2024/01/30 09:29:55;;;;;;;68.50;49.80;;;;;;;1.05;100.00;100735.61;109456;1251;65194;-75
2024/01/30 09:32:22;;;;;;;76.00;53.90;;;;;;;1.11;100.00;100737.36;109427;1251;59805;-76
2024/01/30 09:34:48;;;;;;;74.30;52.50;;;;;;;1.18;100.00;100737.18;109475;1252;59794;-75
2024/01/30 09:37:17;;;;;;;68.40;50.50;;;;;;;1.24;100.00;100730.17;109449;1251;68174;-75
2024/01/30 09:39:44;;;;;;;68.30;48.40;;;;;;;1.31;100.00;100727.90;109495;1251;61347;-75
2024/01/30 09:42:26;;;;;;;61.70;47.40;;;;;;;1.40;100.00;100731.38;109445;1251;65204;-76
2024/01/30 09:44:53;;;;;;;60.40;42.00;;;;;;;1.48;100.00;100735.23;109415;1251;60120;-75
2024/01/30 09:47:20;;;;;;;61.70;42.40;;;;;;;1.57;100.00;100733.98;109521;1251;59823;-74
2024/01/30 09:49:47;;;;;;;61.90;43.20;;;;;;;1.66;100.00;100730.45;109470;1251;66748;-75
2024/01/30 09:52:15;;;;;;;59.00;42.30;;;;;;;1.74;100.00;100728.48;109464;1251;60983;-76
2024/01/30 09:54:41;;;;;;;61.40;44.60;;;;;;;1.84;100.00;100719.88;109477;1251;63994;-76
2024/01/30 09:57:09;;;;;;;64.40;44.60;;;;;;;1.94;100.00;100721.59;109450;1251;60098;-76
2024/01/30 09:59:35;;;;;;;59.30;42.90;;;;;;;2.04;100.00;100720.33;109527;1251;59779;-76
2024/01/30 10:02:04;;;;;;;66.00;44.60;;;;;;;2.13;100.00;100716.95;109486;1251;112722;-74
2024/01/30 10:04:31;;;;;;;64.00;43.90;;;;;;;2.21;100.00;100711.30;109315;1251;61074;-78
2024/01/30 10:07:01;;;;;;;60.90;41.50;;;;;;;2.28;100.00;100708.11;109460;1251;64002;-75
2024/01/30 10:09:31;;;;;;;55.20;40.90;;;;;;;2.37;100.00;100706.13;109465;1251;60063;-75
2024/01/30 10:11:58;;;;;;;59.60;41.50;;;;;;;2.46;100.00;100700.11;109436;1251;59834;-75
2024/01/30 10:14:25;;;;;;;53.40;38.40;;;;;;;2.54;100.00;100701.64;109498;1251;67052;-76
2024/01/30 10:16:52;;;;;;;53.00;39.70;;;;;;;2.63;100.00;100697.35;109440;1251;61038;-75
2024/01/30 10:19:19;;;;;;;63.50;40.50;;;;;;;2.72;100.00;100699.22;109431;1251;64764;-75
2024/01/30 10:21:46;;;;;;;55.10;37.10;;;;;;;2.82;100.00;100695.11;109441;1251;59863;-75
2024/01/30 10:24:13;;;;;;;49.90;35.60;;;;;;;2.93;100.00;100693.79;109503;1251;59667;-76
2024/01/30 10:26:40;;;;;;;51.20;37.00;;;;;;;3.03;100.00;100694.23;109505;1251;68574;-76
2024/01/30 10:29:07;;;;;;;57.90;36.30;;;;;;;3.09;100.00;100689.44;109502;1255;61025;-77
2024/01/30 10:31:33;;;;;;;54.50;36.10;;;;;;;3.16;100.00;100683.75;109443;1251;65249;-78
2024/01/30 10:34:00;;;;;;;50.20;34.80;;;;;;;3.24;100.00;100683.49;109467;1251;59743;-77
2024/01/30 10:36:34;;;;;;;52.90;35.40;;;;;;;3.34;100.00;100685.86;109466;1251;59701;-75
2024/01/30 10:39:01;;;;;;;58.20;37.80;;;;;;;3.45;100.00;100680.82;109468;1251;67935;-76
2024/01/30 10:41:34;;;;;;;55.50;38.50;;;;;;;3.54;100.00;100679.50;109457;1251;59889;-77